Airfield :
LOGIN :

Register | Disclaimer

   EN    FR    IT 

 










Legend :    VFR   Marginal VFR   IFR   Intensive IFR   Very Intensive IFR
Visi :
Ceiling :
>= 8 km
>= 3000ft
5 to 8 km
1000 to 3000 ft
1500m to 5 km
500 to 1000 ft
800 to 1500m
200 to 500 ft
< 800m
< 200 ft
Symbols :   Thunderstorms  Fog  Heavy snow  Heavy precipitations  Wind > 20 kt
SIGMETs :     Misc.  Thunderstorms  Icing  Turbulence  Mountain Waves  Volcanic Ashes







- Airport Elevation : 202 ft
- IATA code : LGW
- Download approach charts


EGKK - London Gatwick

CURRENT METAR :
  • 191650Z 27004KT 9999 FEW040 15/08 Q1022

EXPIRED METARs :
  • 191620Z 26005KT 230V310 9999 FEW038 15/08 Q1021
  • 191550Z 29006KT 9999 FEW047 15/07 Q1021
  • 191520Z 28006KT 9999 FEW047 15/08 Q1021
  • 191450Z 29006KT 9999 FEW044 15/07 Q1021
  • 191420Z 30006KT 270V330 9999 FEW043 15/07 Q1022

TAF TAF EGKK
Valid from the 19 at 12:00 until the 20 at 18:00 UTC


191048Z 1912/2018 29005KT 9999 FEW035
BECMG 2000/2003 6000
PROB30 2003/2007 3000 BR
BECMG 2007/2009 9999
BECMG 2009/2012 23010KT
No reported NOTAMs for that airfield.



MET'MAP, your aeronautical weather chart ! - Copyright ORBIFLY December 2007 - Disclaimer

ORBIFLY MET'MAP TEAM :

Programming & Development : Alexandra Zaïnal
Concept & Development : Baudouin d'Aumeries
Co-Development & Prog : Marc-Olivier Méhu
Technical & hardware support : Manuel Goepfert

Contact : metmap@orbifly.com




SOURCES & CREDITS :

   NOAA